Time;durP1;ratioP1;P1;durP2;ratioP2;P2;SDS_P1;SDS_P2;PMS_P1;PMS_P2;Temp;Humidity;BMP_temperature;BMP_pressure;BME280_temperature;BME280_humidity;BME280_pressure;Samples;Min_cycle;Max_cycle;Signal;HPM_P1;HPM_P2
2022/04/14 00:00:01;;;;;;;15.05;10.68;;;;;;;13.80;90.19;101224.19;4911986;29;20041;-84
2022/04/14 00:02:27;;;;;;;15.63;11.90;;;;;;;13.77;90.19;101230.34;4891883;29;20415;-85
2022/04/14 00:04:54;;;;;;;18.52;11.55;;;;;;;13.72;90.03;101227.78;4878961;29;20048;-84
2022/04/14 00:07:20;;;;;;;16.73;11.35;;;;;;;13.71;90.79;101228.69;4878565;29;20060;-84
2022/04/14 00:09:47;;;;;;;17.60;12.65;;;;;;;13.72;90.37;101219.88;4874750;29;20063;-84
2022/04/14 00:12:13;;;;;;;17.25;12.55;;;;;;;13.73;90.21;101223.41;4894297;29;20056;-84
2022/04/14 00:14:40;;;;;;;19.92;11.18;;;;;;;13.68;90.14;101218.19;4882209;29;20055;-83
2022/04/14 00:17:06;;;;;;;17.98;13.05;;;;;;;13.66;90.86;101219.97;4883019;29;20083;-84
2022/04/14 00:19:33;;;;;;;22.65;12.50;;;;;;;13.63;91.02;101237.56;4897379;29;20052;-84
2022/04/14 00:21:59;;;;;;;16.55;10.48;;;;;;;13.60;91.38;101230.56;4894163;29;20038;-84
2022/04/14 00:24:26;;;;;;;15.48;10.70;;;;;;;13.61;91.46;101239.31;4893267;29;20045;-84
2022/04/14 00:26:53;;;;;;;15.85;12.10;;;;;;;13.61;91.27;101241.94;4895041;29;20040;-84
2022/04/14 00:29:19;;;;;;;16.40;11.77;;;;;;;13.62;90.98;101241.06;4912732;29;20043;-85
2022/04/14 00:31:46;;;;;;;19.58;12.55;;;;;;;13.65;91.27;101238.38;4892480;29;20055;-85
2022/04/14 00:34:12;;;;;;;17.42;11.68;;;;;;;13.67;90.93;101240.09;4894559;29;20043;-83
2022/04/14 00:36:39;;;;;;;15.82;10.50;;;;;;;13.68;91.01;101241.00;4878986;29;20519;-84
2022/04/14 00:39:05;;;;;;;18.02;13.55;;;;;;;13.69;90.95;101240.13;4895737;29;20055;-84
2022/04/14 00:41:32;;;;;;;14.88;10.30;;;;;;;13.71;90.96;101233.06;4895340;29;20455;-84
2022/04/14 00:43:58;;;;;;;20.60;12.73;;;;;;;13.72;91.32;101237.44;4908982;29;20126;-84
2022/04/14 00:46:25;;;;;;;14.27;11.50;;;;;;;13.69;91.44;101238.34;4880453;29;20511;-84
2022/04/14 00:48:53;;;;;;;16.27;10.68;;;;;;;13.67;91.64;101248.00;4913949;29;20060;-83
2022/04/14 00:51:20;;;;;;;17.48;11.27;;;;;;;13.66;92.21;101237.50;4874602;29;20103;-84
2022/04/14 00:53:46;;;;;;;21.17;12.45;;;;;;;13.65;92.61;101248.91;4896517;29;20041;-83
2022/04/14 00:56:13;;;;;;;17.92;12.20;;;;;;;13.64;92.38;101252.47;4895022;29;20131;-84
2022/04/14 00:58:41;;;;;;;20.17;12.15;;;;;;;13.61;93.19;101256.00;4899552;29;20067;-83
2022/04/14 01:01:08;;;;;;;17.40;12.95;;;;;;;13.61;93.26;101250.72;4882447;29;20393;-83
2022/04/14 01:03:36;;;;;;;20.88;13.20;;;;;;;13.60;93.65;101250.72;4906317;29;20191;-84
2022/04/14 01:06:04;;;;;;;17.83;11.73;;;;;;;13.56;93.74;101245.50;4894261;29;20055;-85
2022/04/14 01:08:32;;;;;;;21.10;12.75;;;;;;;13.55;93.85;101242.91;4893749;29;20463;-83
2022/04/14 01:11:00;;;;;;;19.75;12.88;;;;;;;13.52;94.10;101254.34;4880253;29;20152;-84
2022/04/14 01:13:26;;;;;;;16.38;12.70;;;;;;;13.50;94.03;101257.88;4874522;29;20044;-84
2022/04/14 01:16:00;;;;;;;20.95;12.60;;;;;;;13.49;94.03;101259.66;4883576;29;20052;-84
2022/04/14 01:18:28;;;;;;;18.52;12.85;;;;;;;13.46;94.77;101261.44;4895478;29;20568;-84
2022/04/14 01:20:54;;;;;;;19.10;12.35;;;;;;;13.44;94.81;101264.09;4894136;29;20083;-83
2022/04/14 01:23:45;;;;;;;17.23;12.55;;;;;;;13.43;94.92;101262.34;4886330;29;20150;-83
2022/04/14 01:26:12;;;;;;;16.15;11.38;;;;;;;13.42;95.04;101262.34;4909587;29;20566;-83
2022/04/14 01:28:38;;;;;;;19.58;11.90;;;;;;;13.41;94.67;101258.84;4893995;29;20059;-83
2022/04/14 01:31:05;;;;;;;19.13;13.15;;;;;;;13.39;95.32;101265.88;4899382;29;20059;-83
2022/04/14 01:33:31;;;;;;;18.27;12.35;;;;;;;13.39;95.18;101258.00;4889606;29;20036;-84
2022/04/14 01:35:58;;;;;;;16.20;11.60;;;;;;;13.38;95.74;101262.38;4892503;29;20044;-84
2022/04/14 01:38:24;;;;;;;12.70;9.50;;;;;;;13.37;95.31;101259.75;4909073;29;20132;-84
2022/04/14 01:40:51;;;;;;;18.20;12.82;;;;;;;13.35;95.63;101258.88;4895033;29;20053;-84
2022/04/14 01:43:17;;;;;;;16.17;11.32;;;;;;;13.35;96.26;101262.38;4888418;29;20056;-83
2022/04/14 01:45:50;;;;;;;15.80;12.13;;;;;;;13.36;95.98;101271.13;4893619;29;20307;-83
2022/04/14 01:48:17;;;;;;;15.30;11.68;;;;;;;13.36;96.08;101263.25;4894356;29;20056;-85
2022/04/14 01:50:45;;;;;;;20.90;12.07;;;;;;;13.36;96.15;101271.13;4891540;29;20048;-85
2022/04/14 01:53:11;;;;;;;17.38;11.70;;;;;;;13.35;96.28;101272.91;4901874;29;20055;-84
2022/04/14 01:55:38;;;;;;;20.50;11.35;;;;;;;13.30;96.78;101274.72;4892069;29;20103;-84
2022/04/14 01:58:04;;;;;;;14.48;9.68;;;;;;;13.29;96.41;101274.72;4876101;29;20056;-85
2022/04/14 02:00:31;;;;;;;14.48;10.27;;;;;;;13.27;96.66;101281.75;4877360;29;21104;-85
2022/04/14 02:02:59;;;;;;;13.32;9.38;;;;;;;13.24;97.08;101273.03;4889067;29;20056;-84
2022/04/14 02:05:26;;;;;;;12.00;9.13;;;;;;;13.21;97.66;101278.28;4891128;29;20372;-83
2022/04/14 02:07:52;;;;;;;17.27;9.82;;;;;;;13.19;97.83;101271.31;4894925;29;20056;-82
2022/04/14 02:10:19;;;;;;;12.45;9.07;;;;;;;13.17;97.91;101276.59;4908870;29;20044;-83
2022/04/14 02:12:46;;;;;;;13.70;9.80;;;;;;;13.15;97.97;101280.13;4887218;29;20040;-83
2022/04/14 02:15:13;;;;;;;15.00;9.10;;;;;;;13.13;98.23;101276.63;4894312;29;20079;-84
2022/04/14 02:17:40;;;;;;;14.50;9.57;;;;;;;13.10;98.71;101274.88;4877936;29;20147;-84
2022/04/14 02:20:07;;;;;;;12.90;9.05;;;;;;;13.07;98.84;101274.91;4876347;29;20115;-84
2022/04/14 02:22:43;;;;;;;10.95;7.90;;;;;;;13.05;99.34;101268.81;4889058;29;20568;-84
2022/04/14 02:25:10;;;;;;;9.57;7.78;;;;;;;12.97;100.00;101261.00;4876935;29;20051;-84
2022/04/14 02:27:37;;;;;;;10.50;7.35;;;;;;;12.89;100.00;101274.22;4881203;29;20135;-83
2022/04/14 02:30:07;;;;;;;8.23;6.75;;;;;;;12.83;100.00;101278.66;4916314;29;20562;-83
2022/04/14 02:32:33;;;;;;;8.85;6.05;;;;;;;12.80;100.00;101276.03;4894504;29;20058;-83
2022/04/14 02:35:00;;;;;;;7.15;5.22;;;;;;;12.76;100.00;101282.19;4882521;29;20048;-85
2022/04/14 02:37:26;;;;;;;7.38;5.20;;;;;;;12.72;100.00;101277.00;4899475;29;20052;-83
2022/04/14 02:39:53;;;;;;;7.35;4.18;;;;;;;12.69;100.00;101270.88;4882532;29;20583;-83
2022/04/14 02:42:19;;;;;;;5.45;4.93;;;;;;;12.66;100.00;101270.88;4876012;29;20115;-83
2022/04/14 02:44:46;;;;;;;6.10;4.80;;;;;;;12.60;100.00;101274.44;4896638;29;20072;-84
2022/04/14 02:47:13;;;;;;;4.75;4.30;;;;;;;12.56;100.00;101267.47;4916149;29;20064;-84
2022/04/14 02:49:42;;;;;;;5.70;4.25;;;;;;;12.51;100.00;101259.59;4901265;29;20071;-85
2022/04/14 02:52:09;;;;;;;7.00;4.85;;;;;;;12.47;100.00;101264.91;4898484;29;20055;-84
2022/04/14 02:54:37;;;;;;;6.82;4.85;;;;;;;12.44;100.00;101264.91;4901679;29;20405;-83
2022/04/14 02:57:09;;;;;;;6.80;4.93;;;;;;;12.42;100.00;101257.06;4887949;29;20490;-84
2022/04/14 02:59:37;;;;;;;6.88;4.75;;;;;;;12.37;100.00;101259.72;4908801;29;20051;-84
2022/04/14 03:02:05;;;;;;;6.90;5.93;;;;;;;12.32;100.00;101263.25;4916218;29;20379;-83
2022/04/14 03:04:32;;;;;;;5.70;4.85;;;;;;;12.26;100.00;101258.91;4883398;29;20055;-84
2022/04/14 03:06:58;;;;;;;4.60;4.20;;;;;;;12.21;100.00;101258.06;4899738;29;20055;-84
2022/04/14 03:09:26;;;;;;;5.70;4.63;;;;;;;12.19;100.00;101258.09;4901226;29;20048;-83
2022/04/14 03:11:52;;;;;;;8.95;5.32;;;;;;;12.18;100.00;101256.34;4896822;29;20063;-83
2022/04/14 03:14:19;;;;;;;5.45;4.38;;;;;;;12.19;100.00;101259.81;4900389;29;20052;-83
2022/04/14 03:16:46;;;;;;;5.55;4.63;;;;;;;12.20;100.00;101251.06;4902284;29;20072;-85
2022/04/14 03:19:13;;;;;;;6.93;5.30;;;;;;;12.19;100.00;101252.84;4881896;29;20064;-84
2022/04/14 03:21:39;;;;;;;3.97;3.67;;;;;;;12.19;100.00;101265.06;4880547;29;20134;-83
2022/04/14 03:24:06;;;;;;;5.40;4.70;;;;;;;12.16;100.00;101255.50;4883697;29;20104;-84
2022/04/14 03:26:36;;;;;;;6.88;4.47;;;;;;;12.15;100.00;101256.38;4887256;29;20059;-83
2022/04/14 03:29:02;;;;;;;6.55;4.30;;;;;;;12.13;100.00;101259.88;4913316;29;20044;-83
2022/04/14 03:31:30;;;;;;;9.43;5.40;;;;;;;12.12;100.00;101260.75;4895590;29;20415;-85
2022/04/14 03:33:57;;;;;;;5.28;4.43;;;;;;;12.08;100.00;101254.63;4898408;29;20044;-83
2022/04/14 03:36:24;;;;;;;5.32;4.78;;;;;;;12.05;100.00;101255.53;4899650;29;20135;-84
2022/04/14 03:38:50;;;;;;;9.77;5.55;;;;;;;12.02;100.00;101245.06;4887882;29;20383;-83
2022/04/14 03:41:19;;;;;;;5.70;5.10;;;;;;;12.00;100.00;101241.56;4900141;29;20050;-83
2022/04/14 03:43:45;;;;;;;6.13;4.38;;;;;;;11.99;100.00;101241.56;4895644;29;20044;-84
2022/04/14 03:46:14;;;;;;;5.82;4.78;;;;;;;11.95;100.00;101243.34;4902731;29;20127;-84
2022/04/14 03:48:42;;;;;;;7.32;5.68;;;;;;;11.95;100.00;101245.06;4887421;29;20052;-83
2022/04/14 03:51:10;;;;;;;5.93;5.43;;;;;;;11.94;100.00;101240.69;4886286;29;20048;-83
2022/04/14 03:53:36;;;;;;;7.47;5.82;;;;;;;11.93;100.00;101231.97;4908983;29;20076;-84
2022/04/14 03:56:03;;;;;;;5.68;4.95;;;;;;;11.94;100.00;101228.44;4886749;29;20055;-83
2022/04/14 03:58:30;;;;;;;8.00;5.05;;;;;;;11.92;100.00;101231.06;4897751;29;20151;-83
2022/04/14 04:00:57;;;;;;;7.97;5.97;;;;;;;11.90;100.00;101235.47;4888208;29;20059;-83
2022/04/14 04:03:23;;;;;;;7.78;5.43;;;;;;;11.88;100.00;101234.59;4898508;29;20051;-84
2022/04/14 04:05:50;;;;;;;5.63;4.45;;;;;;;11.87;100.00;101234.59;4902235;29;20060;-84
2022/04/14 04:08:17;;;;;;;9.88;5.75;;;;;;;11.87;100.00;101240.72;4898843;29;20115;-84
2022/04/14 04:10:44;;;;;;;6.28;5.53;;;;;;;11.83;100.00;101239.00;4915189;29;20052;-83
2022/04/14 04:13:14;;;;;;;5.90;5.30;;;;;;;11.82;100.00;101234.63;4898364;29;20159;-82
2022/04/14 04:15:40;;;;;;;7.78;6.35;;;;;;;11.82;100.00;101239.00;4888525;29;20116;-84
2022/04/14 04:18:10;;;;;;;6.00;5.40;;;;;;;11.79;100.00;101233.78;4905714;29;20058;-84
2022/04/14 04:20:40;;;;;;;6.15;5.55;;;;;;;11.77;100.00;101233.75;4884311;29;22480;-84
2022/04/14 04:23:10;;;;;;;6.63;5.90;;;;;;;11.77;100.00;101238.16;4903919;29;20048;-84
2022/04/14 04:25:36;;;;;;;8.50;5.78;;;;;;;11.78;100.00;101240.75;4897098;29;20135;-84
2022/04/14 04:28:04;;;;;;;6.70;5.57;;;;;;;11.83;100.00;101241.63;4905940;29;20394;-84
2022/04/14 04:30:31;;;;;;;8.02;4.75;;;;;;;11.84;100.00;101247.75;4905366;29;20064;-84
2022/04/14 04:33:00;;;;;;;6.80;5.70;;;;;;;11.84;100.00;101251.22;4910044;29;20725;-84
2022/04/14 04:35:27;;;;;;;5.55;5.07;;;;;;;11.81;100.00;101248.63;4888710;29;20510;-83
2022/04/14 04:37:55;;;;;;;7.57;5.65;;;;;;;11.79;100.00;101246.91;4893483;29;20163;-84
2022/04/14 04:40:24;;;;;;;7.82;6.15;;;;;;;11.79;100.00;101246.91;4906684;29;20052;-82
2022/04/14 04:42:54;;;;;;;6.65;5.15;;;;;;;11.78;100.00;101253.88;4908977;29;20039;-83
2022/04/14 04:45:21;;;;;;;7.72;6.25;;;;;;;11.71;100.00;101250.41;4911795;29;20068;-84
2022/04/14 04:47:48;;;;;;;7.22;5.35;;;;;;;11.68;100.00;101260.03;4909184;29;20048;-84
2022/04/14 04:50:15;;;;;;;8.32;5.53;;;;;;;11.68;100.00;101254.78;4926163;29;20434;-85
2022/04/14 04:52:42;;;;;;;6.40;5.90;;;;;;;11.67;100.00;101255.69;4904305;29;20107;-84
2022/04/14 04:55:13;;;;;;;6.13;5.35;;;;;;;11.67;100.00;101255.69;4905521;29;20043;-85
2022/04/14 04:57:40;;;;;;;7.50;5.65;;;;;;;11.66;100.00;101257.41;4891003;29;20089;-83
2022/04/14 05:00:07;;;;;;;5.95;4.95;;;;;;;11.65;100.00;101271.41;4904772;29;20659;-85
2022/04/14 05:02:34;;;;;;;8.70;6.22;;;;;;;11.64;100.00;101267.06;4903762;29;20051;-84
2022/04/14 05:05:04;;;;;;;8.18;5.55;;;;;;;11.64;100.00;101274.03;4888835;29;20059;-84
2022/04/14 05:07:31;;;;;;;6.40;5.25;;;;;;;11.59;100.00;101272.31;4906180;29;20085;-84
2022/04/14 05:09:58;;;;;;;6.50;5.28;;;;;;;11.61;100.00;101276.69;4917463;29;20151;-84
2022/04/14 05:12:25;;;;;;;7.25;5.20;;;;;;;11.64;100.00;101274.03;4901771;29;20053;-83
2022/04/14 05:14:53;;;;;;;6.38;4.85;;;;;;;11.66;100.00;101280.16;4919664;29;20043;-85
2022/04/14 05:17:20;;;;;;;7.72;5.15;;;;;;;11.69;100.00;101280.16;4895717;29;20127;-85
2022/04/14 05:19:50;;;;;;;4.93;4.13;;;;;;;11.70;100.00;101274.03;4921910;29;20040;-84
2022/04/14 05:22:20;;;;;;;6.07;4.50;;;;;;;11.68;100.00;101274.03;4905291;29;20036;-84
2022/04/14 05:24:47;;;;;;;7.05;4.32;;;;;;;11.69;100.00;101267.94;4890624;29;20653;-83
2022/04/14 05:27:14;;;;;;;5.20;3.60;;;;;;;11.72;100.00;101275.78;4918660;29;20052;-84
2022/04/14 05:33:50;;;;;;;7.60;4.07;;;;;;;11.85;100.00;101296.69;4852401;29;20341;-85
2022/04/14 05:36:21;;;;;;;4.15;3.75;;;;;;;11.89;100.00;101294.06;4879838;29;20135;-83
2022/04/14 05:38:48;;;;;;;7.07;4.68;;;;;;;11.92;100.00;101293.19;4895640;29;20456;-85
2022/04/14 05:41:14;;;;;;;4.40;4.00;;;;;;;11.99;100.00;101302.78;4890486;29;20044;-86
2022/04/14 05:43:41;;;;;;;6.13;4.35;;;;;;;12.01;100.00;101295.78;4905767;29;20052;-84
2022/04/14 05:46:07;;;;;;;9.13;4.68;;;;;;;12.02;100.00;101299.28;4893592;29;20117;-84
2022/04/14 05:48:34;;;;;;;4.97;4.47;;;;;;;12.00;100.00;101308.91;4897992;29;20112;-83
2022/04/14 05:51:00;;;;;;;4.95;4.53;;;;;;;11.96;100.00;101308.06;4907548;29;20047;-82
2022/04/14 05:53:28;;;;;;;7.00;4.57;;;;;;;11.96;100.00;101310.69;4894843;29;20055;-82
2022/04/14 05:55:55;;;;;;;7.65;4.90;;;;;;;11.96;100.00;101312.44;4892206;29;20044;-85
2022/04/14 05:58:22;;;;;;;7.93;6.60;;;;;;;11.98;100.00;101319.44;4879035;29;20060;-84
2022/04/14 06:00:49;;;;;;;10.77;5.68;;;;;;;11.99;100.00;101321.16;4894760;29;20126;-83
2022/04/14 06:03:15;;;;;;;7.78;6.20;;;;;;;11.97;100.00;101315.06;4890071;29;20076;-85
2022/04/14 06:05:42;;;;;;;6.07;4.90;;;;;;;11.95;100.00;101308.94;4890875;29;20460;-83
2022/04/14 06:08:09;;;;;;;5.22;4.47;;;;;;;11.94;100.00;101314.16;4875609;29;20511;-84
2022/04/14 06:10:36;;;;;;;5.28;4.78;;;;;;;11.94;100.00;101316.78;4907816;29;20051;-85
2022/04/14 06:13:06;;;;;;;5.25;4.70;;;;;;;11.95;100.00;101318.53;4891057;29;20482;-84
2022/04/14 06:15:32;;;;;;;8.05;6.40;;;;;;;11.96;100.00;101315.94;4881715;29;20119;-85
2022/04/14 06:17:59;;;;;;;14.10;9.77;;;;;;;12.02;100.00;101323.78;4877939;29;20053;-84
2022/04/14 06:20:26;;;;;;;14.05;7.13;;;;;;;12.03;100.00;101328.16;4892254;29;20135;-84
2022/04/14 06:22:55;;;;;;;14.80;8.75;;;;;;;12.05;100.00;101326.38;4907654;29;20473;-83
2022/04/14 06:25:23;;;;;;;13.85;7.82;;;;;;;12.10;100.00;101330.72;4894041;29;20047;-85
2022/04/14 06:27:53;;;;;;;14.15;7.55;;;;;;;12.11;100.00;101330.75;4905715;29;20095;-83
2022/04/14 06:30:21;;;;;;;10.23;6.22;;;;;;;12.11;100.00;101328.13;4894711;29;20147;-84
2022/04/14 06:32:59;;;;;;;8.00;5.72;;;;;;;12.11;100.00;101332.47;4877010;29;20076;-84
2022/04/14 06:35:26;;;;;;;7.60;4.80;;;;;;;12.07;100.00;101323.75;4888801;29;20041;-83
2022/04/14 06:37:53;;;;;;;8.45;4.97;;;;;;;12.06;100.00;101330.75;4890511;29;20060;-85
2022/04/14 06:40:21;;;;;;;5.43;4.72;;;;;;;12.08;100.00;101329.00;4889589;29;20048;-82
2022/04/14 06:42:49;;;;;;;5.82;5.18;;;;;;;12.12;100.00;101336.84;4889271;29;20052;-84
2022/04/14 06:45:17;;;;;;;7.68;5.70;;;;;;;12.13;100.00;101328.97;4896455;29;20044;-83
2022/04/14 06:47:44;;;;;;;8.82;4.55;;;;;;;12.15;100.00;101326.34;4894930;29;20063;-85
2022/04/14 06:50:13;;;;;;;7.38;6.30;;;;;;;12.19;100.00;101326.31;4904899;29;20048;-83
2022/04/14 06:52:41;;;;;;;6.85;5.28;;;;;;;12.23;100.00;101314.06;4873327;29;20052;-85
2022/04/14 06:55:22;;;;;;;;;;;;;;;;;;;;;
2022/04/14 06:57:50;;;;;;;10.88;7.18;;;;;;;12.34;100.00;101314.00;4907003;29;20048;-86
2022/04/14 07:00:18;;;;;;;6.53;5.32;;;;;;;12.40;100.00;101317.47;4877499;29;20082;-85
2022/04/14 07:02:49;;;;;;;4.95;4.35;;;;;;;12.47;100.00;101323.53;4910340;29;20052;-84
2022/04/14 07:05:17;;;;;;;6.03;4.68;;;;;;;12.52;100.00;101319.13;4907987;29;20511;-84
2022/04/14 07:07:44;;;;;;;6.47;4.82;;;;;;;12.62;100.00;101319.06;4877772;29;20052;-84
2022/04/14 07:10:12;;;;;;;8.63;6.03;;;;;;;12.72;100.00;101326.00;4895255;29;20139;-84
2022/04/14 07:12:45;;;;;;;6.82;4.57;;;;;;;12.80;100.00;101332.09;4904733;29;20123;-85
2022/04/14 07:15:15;;;;;;;5.65;5.05;;;;;;;12.86;100.00;101332.03;4877490;29;20130;-85
2022/04/14 07:17:42;;;;;;;6.45;4.50;;;;;;;12.88;100.00;101321.50;4894884;29;20390;-83
2022/04/14 07:20:13;;;;;;;5.47;4.03;;;;;;;12.98;100.00;101331.06;4876810;29;20048;-84
2022/04/14 07:22:44;;;;;;;6.53;3.88;;;;;;;13.10;100.00;101330.09;4890927;29;20573;-83
2022/04/14 07:25:15;;;;;;;4.20;3.80;;;;;;;13.18;100.00;101324.75;4904363;29;20040;-84
2022/04/14 07:27:45;;;;;;;5.13;4.10;;;;;;;13.20;99.29;101329.13;4890674;29;20082;-82
2022/04/14 07:30:12;;;;;;;8.38;4.30;;;;;;;13.25;99.47;101334.34;4890945;29;20059;-82
2022/04/14 07:32:43;;;;;;;6.57;3.80;;;;;;;13.29;99.23;101332.56;4907648;29;20052;-83
2022/04/14 07:35:10;;;;;;;8.13;4.88;;;;;;;13.38;99.06;101325.47;4877338;29;20052;-84
2022/04/14 07:37:37;;;;;;;7.70;4.35;;;;;;;13.48;98.47;101330.66;4887361;29;20407;-84
2022/04/14 07:40:09;;;;;;;10.35;5.43;;;;;;;13.51;97.51;101333.25;4889613;29;20483;-84
2022/04/14 07:42:39;;;;;;;7.28;4.75;;;;;;;13.55;97.40;101329.72;4904280;29;20552;-85
2022/04/14 07:45:08;;;;;;;8.45;4.63;;;;;;;13.64;97.85;101326.97;4891817;29;20052;-83
2022/04/14 07:47:36;;;;;;;7.55;4.93;;;;;;;13.71;96.56;101327.78;4879228;29;20512;-82
2022/04/14 07:50:03;;;;;;;9.98;5.13;;;;;;;13.74;95.02;101327.75;4907465;29;20055;-84
2022/04/14 07:52:30;;;;;;;10.95;4.93;;;;;;;13.77;95.38;101332.97;4874794;29;20063;-83
2022/04/14 07:54:56;;;;;;;8.43;5.18;;;;;;;13.84;94.88;101332.00;4890090;29;20048;-82
2022/04/14 07:57:23;;;;;;;5.50;4.15;;;;;;;13.93;93.55;101338.06;4874968;29;20060;-83
2022/04/14 07:59:49;;;;;;;9.02;4.47;;;;;;;14.03;92.90;101342.34;4910391;29;20327;-84
2022/04/14 08:02:18;;;;;;;8.18;4.25;;;;;;;14.11;92.10;101336.97;4897524;29;20383;-84
2022/04/14 08:04:45;;;;;;;5.65;4.50;;;;;;;14.18;91.82;101336.00;4897080;29;20518;-83
2022/04/14 08:07:11;;;;;;;5.85;4.03;;;;;;;14.34;91.21;101334.91;4912752;29;20119;-85
2022/04/14 08:09:38;;;;;;;8.82;4.55;;;;;;;14.45;89.93;101331.25;4911211;29;20048;-85
2022/04/14 08:12:05;;;;;;;6.65;3.75;;;;;;;14.57;89.34;101331.06;4911115;29;20052;-83
2022/04/14 08:14:32;;;;;;;6.47;4.70;;;;;;;14.64;88.31;101334.50;4877802;29;20056;-85
2022/04/14 08:17:03;;;;;;;10.35;5.90;;;;;;;14.65;87.66;101333.63;4897497;29;20044;-84
2022/04/14 08:19:38;;;;;;;8.88;5.55;;;;;;;14.60;86.37;101340.69;4910546;29;21154;-83
2022/04/14 08:22:05;;;;;;;11.30;5.97;;;;;;;14.51;86.51;101334.66;4893840;29;20051;-85
2022/04/14 08:24:36;;;;;;;8.68;5.35;;;;;;;14.53;87.43;101324.97;4875913;29;20142;-85
2022/04/14 08:27:03;;;;;;;8.70;4.95;;;;;;;14.68;86.88;101334.44;4875988;29;20455;-83
2022/04/14 08:29:29;;;;;;;11.82;6.15;;;;;;;14.86;85.21;101335.94;4907449;29;20054;-85
2022/04/14 08:31:57;;;;;;;14.10;6.53;;;;;;;14.97;83.62;101345.44;4894425;29;20138;-83
2022/04/14 08:34:24;;;;;;;10.93;6.22;;;;;;;15.03;81.94;101332.13;4905946;29;20079;-84
2022/04/14 08:36:52;;;;;;;8.95;6.20;;;;;;;15.00;81.93;101343.59;4889379;29;20048;-84
2022/04/14 08:39:19;;;;;;;9.57;6.72;;;;;;;15.01;82.79;101341.84;4893108;29;20052;-83
2022/04/14 08:41:54;;;;;;;13.15;7.38;;;;;;;15.15;81.54;101339.84;4890936;29;20056;-82
2022/04/14 08:44:24;;;;;;;15.07;7.70;;;;;;;15.33;80.67;101338.66;4897569;29;20448;-84
2022/04/14 08:46:51;;;;;;;15.02;8.80;;;;;;;15.54;79.18;101328.63;4893035;29;20071;-83
2022/04/14 08:49:19;;;;;;;13.48;7.88;;;;;;;15.79;77.38;101336.06;4910425;29;20401;-85
2022/04/14 08:51:47;;;;;;;15.77;9.43;;;;;;;16.02;75.71;101339.13;4876384;29;20083;-83
2022/04/14 08:54:14;;;;;;;13.48;8.18;;;;;;;16.22;76.01;101332.56;4894488;29;20048;-83
2022/04/14 08:56:41;;;;;;;12.20;8.32;;;;;;;16.57;74.75;101335.31;4894637;29;20095;-83
2022/04/14 08:59:10;;;;;;;16.02;8.75;;;;;;;16.74;72.81;101335.81;4893472;29;20058;-84
2022/04/14 09:01:37;;;;;;;12.13;8.02;;;;;;;16.83;73.27;101329.41;4876621;29;20051;-83
2022/04/14 09:04:08;;;;;;;13.43;8.57;;;;;;;16.99;72.36;101333.44;4875177;29;20052;-85
2022/04/14 09:06:34;;;;;;;13.65;9.75;;;;;;;17.12;71.54;101328.72;4887929;29;20052;-83
2022/04/14 09:09:01;;;;;;;12.05;8.18;;;;;;;17.03;70.84;101321.88;4891579;29;20072;-85
2022/04/14 09:11:30;;;;;;;20.80;10.90;;;;;;;16.89;71.72;101323.97;4873778;29;20051;-83
2022/04/14 09:14:05;;;;;;;16.10;11.48;;;;;;;16.76;71.14;101333.13;4874895;29;20071;-84
2022/04/14 09:16:33;;;;;;;13.98;10.40;;;;;;;16.50;71.46;101331.94;4896761;29;20048;-84
2022/04/14 09:19:04;;;;;;;19.83;11.43;;;;;;;16.35;71.88;101331.38;4875464;29;20057;-83
2022/04/14 09:21:30;;;;;;;15.88;10.27;;;;;;;16.20;71.46;101329.06;4892369;29;20134;-84
2022/04/14 09:23:57;;;;;;;15.57;9.05;;;;;;;16.22;71.78;101332.56;4897695;29;20066;-86
2022/04/14 09:26:24;;;;;;;17.70;9.80;;;;;;;16.23;71.12;101326.38;4876326;29;20048;-83
2022/04/14 09:29:17;;;;;;;11.32;8.73;;;;;;;16.26;71.09;101325.44;4880127;29;20052;-85
2022/04/14 09:31:54;;;;;;;15.43;10.30;;;;;;;16.33;70.83;101327.03;4887010;29;20055;-84
2022/04/14 09:34:48;;;;;;;17.58;9.30;;;;;;;16.34;70.48;101329.63;4906422;29;20080;-84
2022/04/14 09:37:15;;;;;;;13.80;8.45;;;;;;;16.42;70.83;101332.13;4894649;29;20139;-84
2022/04/14 09:39:55;;;;;;;15.57;9.82;;;;;;;16.49;69.96;101332.84;4887453;29;20055;-84
2022/04/14 09:42:27;;;;;;;15.55;9.18;;;;;;;16.52;69.78;101330.16;4886915;29;20052;-85
2022/04/14 09:44:54;;;;;;;15.13;10.70;;;;;;;16.57;69.34;101333.56;4878399;29;20056;-85
2022/04/14 09:47:24;;;;;;;13.82;9.48;;;;;;;16.61;69.57;101326.41;4890930;29;20429;-85
2022/04/14 09:49:51;;;;;;;17.70;9.27;;;;;;;16.77;69.47;101338.34;4889831;29;20642;-85
2022/04/14 09:52:18;;;;;;;14.25;9.70;;;;;;;16.87;68.55;101326.66;4891418;29;20047;-86
2022/04/14 09:54:45;;;;;;;16.88;10.32;;;;;;;17.06;67.98;101334.16;4890898;29;20055;-84
2022/04/14 09:57:12;;;;;;;19.55;10.68;;;;;;;17.18;66.72;101339.16;4889049;29;20669;-85
2022/04/14 09:59:38;;;;;;;15.95;9.20;;;;;;;17.19;65.95;101326.78;4890571;29;20062;-84
2022/04/14 10:02:12;;;;;;;14.93;9.57;;;;;;;17.25;66.36;101329.28;4892093;29;20111;-85
2022/04/14 10:04:44;;;;;;;;;;;;;;;17.35;65.22;101325.50;4889049;29;20531;-84
2022/04/14 10:07:19;;;;;;;15.38;9.35;;;;;;;17.55;65.25;101316.13;4906062;29;20051;-84
2022/04/14 10:09:52;;;;;;;17.98;10.65;;;;;;;17.75;63.83;101315.56;4895643;29;20068;-85
2022/04/14 10:12:18;;;;;;;15.98;10.55;;;;;;;17.89;63.40;101319.63;4894110;29;20072;-85
2022/04/14 10:15:04;;;;;;;15.52;10.35;;;;;;;17.95;61.92;101314.16;4905187;29;20346;-84
2022/04/14 10:17:35;;;;;;;18.88;10.60;;;;;;;18.00;62.46;101315.78;4896091;29;20036;-86
2022/04/14 10:20:05;;;;;;;15.90;10.30;;;;;;;17.96;62.01;101318.53;4873630;29;20151;-83
2022/04/14 10:22:32;;;;;;;17.38;10.52;;;;;;;17.99;62.34;101318.44;4904710;29;20427;-86
2022/04/14 10:25:00;;;;;;;15.57;9.75;;;;;;;17.96;62.21;101314.09;4896887;29;20044;-85
2022/04/14 10:27:27;;;;;;;15.70;9.95;;;;;;;17.86;61.48;101310.84;4892063;29;20048;-85
2022/04/14 10:29:57;;;;;;;17.08;10.57;;;;;;;17.85;61.70;101310.88;4916200;29;20056;-84
2022/04/14 10:32:24;;;;;;;12.18;9.90;;;;;;;17.96;61.96;101310.59;4910310;29;20099;-88
2022/04/14 10:34:52;;;;;;;20.25;10.60;;;;;;;18.24;61.31;101312.41;4914252;29;21175;-86
2022/04/14 10:37:45;;;;;;;15.27;10.20;;;;;;;18.60;60.33;101317.50;4886493;29;20048;-85
2022/04/14 10:40:18;;;;;;;14.68;9.73;;;;;;;18.95;58.98;101318.16;4895966;29;20060;-86
2022/04/14 10:42:52;;;;;;;14.30;10.25;;;;;;;19.39;57.78;101309.59;4894572;29;20059;-86
2022/04/14 10:45:26;;;;;;;14.88;10.32;;;;;;;19.66;56.92;101313.06;4905813;29;20051;-86
2022/04/14 10:48:18;;;;;;;16.23;10.30;;;;;;;20.00;56.24;101318.00;4925278;29;20076;-85
2022/04/14 10:50:45;;;;;;;14.10;9.05;;;;;;;20.43;54.69;101319.94;4930301;29;20063;-85
2022/04/14 10:53:45;;;;;;;20.85;12.23;;;;;;;20.66;53.10;101319.00;4896760;29;20096;-84
2022/04/14 10:56:39;;;;;;;12.68;9.45;;;;;;;21.15;52.29;101316.97;4915677;29;20075;-85
2022/04/14 10:59:35;;;;;;;13.65;8.02;;;;;;;22.12;50.52;101310.94;4925597;29;20044;-86
2022/04/14 11:02:19;;;;;;;14.65;10.07;;;;;;;23.58;47.04;101307.28;4911856;29;20104;-86
2022/04/14 11:07:50;;;;;;;9.50;7.30;;;;;;;25.39;41.53;101305.16;4910100;29;20036;-84
2022/04/14 11:13:15;;;;;;;9.70;6.28;;;;;;;22.45;44.86;101307.66;4912349;29;20036;-85
2022/04/14 11:15:42;;;;;;;11.87;7.53;;;;;;;21.40;47.15;101305.25;4930316;28;20035;-84
2022/04/14 11:18:16;;;;;;;8.75;6.10;;;;;;;21.36;48.08;101316.13;4910837;29;20284;-83
2022/04/14 11:21:01;;;;;;;8.05;6.40;;;;;;;22.78;45.68;101306.91;4926504;29;20059;-83
2022/04/14 11:23:35;;;;;;;8.30;5.85;;;;;;;24.03;42.60;101302.25;4920006;29;20058;-83
2022/04/14 11:26:14;;;;;;;6.05;5.47;;;;;;;24.76;41.04;101299.88;4913668;29;20037;-84
2022/04/14 11:29:03;;;;;;;8.75;5.13;;;;;;;26.42;37.34;101289.72;4918333;29;20056;-86
2022/04/14 11:31:51;;;;;;;9.95;5.05;;;;;;;26.87;37.13;101300.19;4907934;29;20048;-85
2022/04/14 11:34:35;;;;;;;7.32;5.70;;;;;;;25.48;38.41;101293.00;4895517;29;20167;-83